sensor_id;sensor_type;location;lat;lon;timestamp;P1;durP1;ratioP1;P2;durP2;ratioP2
13147;SDS011;6639;50.956;4.242;2023-05-10T00:01:34;8.60;;;5.82;;
13147;SDS011;6639;50.956;4.242;2023-05-10T00:04:01;8.35;;;6.22;;
13147;SDS011;6639;50.956;4.242;2023-05-10T00:06:29;10.90;;;5.93;;
13147;SDS011;6639;50.956;4.242;2023-05-10T00:08:56;9.75;;;5.90;;
13147;SDS011;6639;50.956;4.242;2023-05-10T00:11:24;9.75;;;5.60;;
13147;SDS011;6639;50.956;4.242;2023-05-10T00:13:51;8.23;;;6.25;;
13147;SDS011;6639;50.956;4.242;2023-05-10T00:16:18;7.43;;;5.68;;
13147;SDS011;6639;50.956;4.242;2023-05-10T00:18:45;10.07;;;5.93;;
13147;SDS011;6639;50.956;4.242;2023-05-10T00:21:12;8.80;;;6.47;;
13147;SDS011;6639;50.956;4.242;2023-05-10T00:23:39;6.68;;;5.97;;
13147;SDS011;6639;50.956;4.242;2023-05-10T00:26:06;9.02;;;6.97;;
13147;SDS011;6639;50.956;4.242;2023-05-10T00:28:35;9.23;;;6.45;;
13147;SDS011;6639;50.956;4.242;2023-05-10T00:31:01;8.70;;;6.38;;
13147;SDS011;6639;50.956;4.242;2023-05-10T00:33:28;8.15;;;5.80;;
13147;SDS011;6639;50.956;4.242;2023-05-10T00:35:55;12.35;;;6.35;;
13147;SDS011;6639;50.956;4.242;2023-05-10T00:38:22;8.57;;;6.72;;
13147;SDS011;6639;50.956;4.242;2023-05-10T00:40:49;7.00;;;5.38;;
13147;SDS011;6639;50.956;4.242;2023-05-10T00:43:16;9.63;;;6.43;;
13147;SDS011;6639;50.956;4.242;2023-05-10T00:45:44;10.00;;;6.50;;
13147;SDS011;6639;50.956;4.242;2023-05-10T00:48:12;10.40;;;6.80;;
13147;SDS011;6639;50.956;4.242;2023-05-10T00:50:39;6.45;;;5.75;;
13147;SDS011;6639;50.956;4.242;2023-05-10T00:53:06;8.90;;;6.57;;
13147;SDS011;6639;50.956;4.242;2023-05-10T00:55:34;9.50;;;6.80;;
13147;SDS011;6639;50.956;4.242;2023-05-10T00:58:01;8.88;;;6.03;;
13147;SDS011;6639;50.956;4.242;2023-05-10T01:00:28;7.28;;;6.18;;
13147;SDS011;6639;50.956;4.242;2023-05-10T01:02:57;9.63;;;6.78;;
13147;SDS011;6639;50.956;4.242;2023-05-10T01:05:24;9.98;;;6.20;;
13147;SDS011;6639;50.956;4.242;2023-05-10T01:07:52;8.50;;;7.00;;
13147;SDS011;6639;50.956;4.242;2023-05-10T01:10:19;11.43;;;6.53;;
13147;SDS011;6639;50.956;4.242;2023-05-10T01:12:46;10.07;;;7.05;;
13147;SDS011;6639;50.956;4.242;2023-05-10T01:15:14;10.55;;;6.72;;
13147;SDS011;6639;50.956;4.242;2023-05-10T01:17:42;9.05;;;6.65;;
13147;SDS011;6639;50.956;4.242;2023-05-10T01:20:12;9.93;;;6.65;;
13147;SDS011;6639;50.956;4.242;2023-05-10T01:22:42;10.95;;;7.70;;
13147;SDS011;6639;50.956;4.242;2023-05-10T01:25:29;10.75;;;7.63;;
13147;SDS011;6639;50.956;4.242;2023-05-10T01:28:19;11.98;;;8.63;;
13147;SDS011;6639;50.956;4.242;2023-05-10T01:31:08;9.30;;;7.90;;
13147;SDS011;6639;50.956;4.242;2023-05-10T01:33:48;9.40;;;7.13;;
13147;SDS011;6639;50.956;4.242;2023-05-10T01:36:24;10.77;;;7.90;;
13147;SDS011;6639;50.956;4.242;2023-05-10T01:38:57;10.00;;;7.90;;
13147;SDS011;6639;50.956;4.242;2023-05-10T01:41:33;11.35;;;7.97;;
13147;SDS011;6639;50.956;4.242;2023-05-10T01:44:09;10.68;;;8.07;;
13147;SDS011;6639;50.956;4.242;2023-05-10T01:46:42;13.43;;;9.25;;
13147;SDS011;6639;50.956;4.242;2023-05-10T01:49:13;8.85;;;7.65;;
13147;SDS011;6639;50.956;4.242;2023-05-10T01:51:47;9.38;;;8.32;;
13147;SDS011;6639;50.956;4.242;2023-05-10T01:54:19;12.77;;;8.93;;
13147;SDS011;6639;50.956;4.242;2023-05-10T01:56:47;9.90;;;8.30;;
13147;SDS011;6639;50.956;4.242;2023-05-10T01:59:21;10.38;;;8.55;;
13147;SDS011;6639;50.956;4.242;2023-05-10T02:01:51;12.55;;;9.18;;
13147;SDS011;6639;50.956;4.242;2023-05-10T02:04:21;10.50;;;8.20;;
13147;SDS011;6639;50.956;4.242;2023-05-10T02:06:49;15.07;;;10.00;;
13147;SDS011;6639;50.956;4.242;2023-05-10T02:09:19;13.15;;;9.15;;
13147;SDS011;6639;50.956;4.242;2023-05-10T02:11:47;14.15;;;9.05;;
13147;SDS011;6639;50.956;4.242;2023-05-10T02:14:15;12.02;;;9.65;;
13147;SDS011;6639;50.956;4.242;2023-05-10T02:16:43;13.10;;;10.30;;
13147;SDS011;6639;50.956;4.242;2023-05-10T02:19:11;11.55;;;9.07;;
13147;SDS011;6639;50.956;4.242;2023-05-10T02:21:41;14.52;;;10.50;;
13147;SDS011;6639;50.956;4.242;2023-05-10T02:24:08;14.43;;;10.73;;
13147;SDS011;6639;50.956;4.242;2023-05-10T02:26:37;11.68;;;10.43;;
13147;SDS011;6639;50.956;4.242;2023-05-10T02:29:05;16.27;;;11.55;;
13147;SDS011;6639;50.956;4.242;2023-05-10T02:31:33;16.65;;;11.38;;
13147;SDS011;6639;50.956;4.242;2023-05-10T02:34:03;14.82;;;11.38;;
13147;SDS011;6639;50.956;4.242;2023-05-10T02:36:32;14.93;;;11.23;;
13147;SDS011;6639;50.956;4.242;2023-05-10T02:39:02;16.77;;;11.43;;
13147;SDS011;6639;50.956;4.242;2023-05-10T02:41:30;15.43;;;10.75;;
13147;SDS011;6639;50.956;4.242;2023-05-10T02:43:59;15.98;;;11.55;;
13147;SDS011;6639;50.956;4.242;2023-05-10T02:46:28;17.58;;;12.88;;
13147;SDS011;6639;50.956;4.242;2023-05-10T02:48:55;18.80;;;12.63;;
13147;SDS011;6639;50.956;4.242;2023-05-10T02:51:23;15.02;;;11.27;;
13147;SDS011;6639;50.956;4.242;2023-05-10T02:53:54;14.45;;;11.48;;
13147;SDS011;6639;50.956;4.242;2023-05-10T02:56:24;15.52;;;11.82;;
13147;SDS011;6639;50.956;4.242;2023-05-10T02:58:57;17.00;;;12.43;;
13147;SDS011;6639;50.956;4.242;2023-05-10T03:01:24;15.60;;;12.32;;
13147;SDS011;6639;50.956;4.242;2023-05-10T03:03:51;17.90;;;11.57;;
13147;SDS011;6639;50.956;4.242;2023-05-10T03:06:18;15.20;;;11.90;;
13147;SDS011;6639;50.956;4.242;2023-05-10T03:08:45;14.55;;;11.85;;
13147;SDS011;6639;50.956;4.242;2023-05-10T03:11:19;17.90;;;12.88;;
13147;SDS011;6639;50.956;4.242;2023-05-10T03:14:03;19.27;;;13.50;;
13147;SDS011;6639;50.956;4.242;2023-05-10T03:16:41;18.83;;;12.70;;
13147;SDS011;6639;50.956;4.242;2023-05-10T03:19:12;17.92;;;13.27;;
13147;SDS011;6639;50.956;4.242;2023-05-10T03:21:44;21.33;;;14.95;;
13147;SDS011;6639;50.956;4.242;2023-05-10T03:24:16;18.98;;;13.63;;
13147;SDS011;6639;50.956;4.242;2023-05-10T03:26:49;22.20;;;14.80;;
13147;SDS011;6639;50.956;4.242;2023-05-10T03:29:21;18.45;;;14.45;;
13147;SDS011;6639;50.956;4.242;2023-05-10T03:31:51;20.80;;;14.65;;
13147;SDS011;6639;50.956;4.242;2023-05-10T03:34:22;17.23;;;14.02;;
13147;SDS011;6639;50.956;4.242;2023-05-10T03:36:50;21.02;;;14.73;;
13147;SDS011;6639;50.956;4.242;2023-05-10T03:39:17;18.60;;;13.85;;
13147;SDS011;6639;50.956;4.242;2023-05-10T03:41:44;16.85;;;14.60;;
13147;SDS011;6639;50.956;4.242;2023-05-10T03:44:12;18.67;;;13.93;;
13147;SDS011;6639;50.956;4.242;2023-05-10T03:46:39;18.02;;;14.73;;
13147;SDS011;6639;50.956;4.242;2023-05-10T03:49:06;19.88;;;14.13;;
13147;SDS011;6639;50.956;4.242;2023-05-10T03:51:33;17.77;;;13.27;;
13147;SDS011;6639;50.956;4.242;2023-05-10T03:54:00;22.95;;;14.70;;
13147;SDS011;6639;50.956;4.242;2023-05-10T03:56:27;18.98;;;14.65;;
13147;SDS011;6639;50.956;4.242;2023-05-10T03:58:53;19.60;;;14.77;;
13147;SDS011;6639;50.956;4.242;2023-05-10T04:01:22;17.58;;;14.30;;
13147;SDS011;6639;50.956;4.242;2023-05-10T04:03:49;19.00;;;15.57;;
13147;SDS011;6639;50.956;4.242;2023-05-10T04:06:16;17.30;;;14.27;;
13147;SDS011;6639;50.956;4.242;2023-05-10T04:08:43;19.85;;;14.88;;
13147;SDS011;6639;50.956;4.242;2023-05-10T04:11:10;16.55;;;14.00;;
13147;SDS011;6639;50.956;4.242;2023-05-10T04:13:37;17.77;;;14.32;;
13147;SDS011;6639;50.956;4.242;2023-05-10T04:16:04;18.63;;;14.82;;
13147;SDS011;6639;50.956;4.242;2023-05-10T04:18:33;19.33;;;15.00;;
13147;SDS011;6639;50.956;4.242;2023-05-10T04:21:00;18.65;;;14.88;;
13147;SDS011;6639;50.956;4.242;2023-05-10T04:23:27;16.50;;;14.48;;
13147;SDS011;6639;50.956;4.242;2023-05-10T04:25:58;19.52;;;14.63;;
13147;SDS011;6639;50.956;4.242;2023-05-10T04:28:26;16.33;;;13.88;;
13147;SDS011;6639;50.956;4.242;2023-05-10T04:30:53;19.13;;;15.38;;
13147;SDS011;6639;50.956;4.242;2023-05-10T04:33:27;20.85;;;15.63;;
13147;SDS011;6639;50.956;4.242;2023-05-10T04:35:55;18.45;;;14.50;;
13147;SDS011;6639;50.956;4.242;2023-05-10T04:38:22;17.65;;;13.93;;
13147;SDS011;6639;50.956;4.242;2023-05-10T04:40:50;17.67;;;13.77;;
13147;SDS011;6639;50.956;4.242;2023-05-10T04:43:17;15.98;;;13.50;;
13147;SDS011;6639;50.956;4.242;2023-05-10T04:45:44;17.35;;;14.20;;
13147;SDS011;6639;50.956;4.242;2023-05-10T04:48:11;17.00;;;14.20;;
13147;SDS011;6639;50.956;4.242;2023-05-10T04:50:38;15.70;;;12.75;;
13147;SDS011;6639;50.956;4.242;2023-05-10T04:53:07;15.52;;;13.88;;
13147;SDS011;6639;50.956;4.242;2023-05-10T04:55:33;14.48;;;12.90;;
13147;SDS011;6639;50.956;4.242;2023-05-10T04:58:00;16.77;;;12.75;;
13147;SDS011;6639;50.956;4.242;2023-05-10T05:00:27;17.50;;;13.57;;
13147;SDS011;6639;50.956;4.242;2023-05-10T05:02:54;16.92;;;14.18;;
13147;SDS011;6639;50.956;4.242;2023-05-10T05:05:21;17.60;;;13.80;;
13147;SDS011;6639;50.956;4.242;2023-05-10T05:07:48;15.20;;;12.93;;
13147;SDS011;6639;50.956;4.242;2023-05-10T05:10:17;17.73;;;13.63;;
13147;SDS011;6639;50.956;4.242;2023-05-10T05:12:44;20.08;;;13.95;;
13147;SDS011;6639;50.956;4.242;2023-05-10T05:15:11;16.10;;;13.68;;
13147;SDS011;6639;50.956;4.242;2023-05-10T05:17:38;15.48;;;12.80;;
13147;SDS011;6639;50.956;4.242;2023-05-10T05:20:05;15.00;;;12.55;;
13147;SDS011;6639;50.956;4.242;2023-05-10T05:22:33;17.60;;;13.85;;
13147;SDS011;6639;50.956;4.242;2023-05-10T05:25:01;17.00;;;13.90;;
13147;SDS011;6639;50.956;4.242;2023-05-10T05:27:30;17.27;;;13.90;;
13147;SDS011;6639;50.956;4.242;2023-05-10T05:29:58;17.27;;;13.73;;
13147;SDS011;6639;50.956;4.242;2023-05-10T05:32:25;17.88;;;13.57;;
13147;SDS011;6639;50.956;4.242;2023-05-10T05:34:52;20.55;;;14.32;;
13147;SDS011;6639;50.956;4.242;2023-05-10T05:37:19;19.70;;;14.15;;
13147;SDS011;6639;50.956;4.242;2023-05-10T05:39:47;15.40;;;13.18;;
13147;SDS011;6639;50.956;4.242;2023-05-10T05:42:15;16.17;;;12.80;;
13147;SDS011;6639;50.956;4.242;2023-05-10T05:44:45;17.20;;;13.55;;
13147;SDS011;6639;50.956;4.242;2023-05-10T05:47:12;18.40;;;13.02;;
13147;SDS011;6639;50.956;4.242;2023-05-10T05:49:41;17.30;;;13.80;;
13147;SDS011;6639;50.956;4.242;2023-05-10T05:52:10;17.17;;;14.68;;
13147;SDS011;6639;50.956;4.242;2023-05-10T05:54:38;19.98;;;14.25;;
13147;SDS011;6639;50.956;4.242;2023-05-10T05:57:05;19.13;;;15.00;;
13147;SDS011;6639;50.956;4.242;2023-05-10T05:59:32;19.55;;;15.60;;
13147;SDS011;6639;50.956;4.242;2023-05-10T06:02:00;19.73;;;15.50;;
13147;SDS011;6639;50.956;4.242;2023-05-10T06:04:27;21.85;;;16.20;;
13147;SDS011;6639;50.956;4.242;2023-05-10T06:06:54;22.85;;;16.08;;
13147;SDS011;6639;50.956;4.242;2023-05-10T06:09:21;20.58;;;16.50;;
13147;SDS011;6639;50.956;4.242;2023-05-10T06:11:49;20.85;;;16.75;;
13147;SDS011;6639;50.956;4.242;2023-05-10T06:14:16;23.50;;;16.85;;
13147;SDS011;6639;50.956;4.242;2023-05-10T06:16:43;22.10;;;16.55;;
13147;SDS011;6639;50.956;4.242;2023-05-10T06:19:11;23.10;;;16.77;;
13147;SDS011;6639;50.956;4.242;2023-05-10T06:21:38;22.25;;;17.58;;
13147;SDS011;6639;50.956;4.242;2023-05-10T06:24:05;26.13;;;18.10;;
13147;SDS011;6639;50.956;4.242;2023-05-10T06:26:33;24.80;;;17.30;;
13147;SDS011;6639;50.956;4.242;2023-05-10T06:29:00;22.40;;;17.65;;
13147;SDS011;6639;50.956;4.242;2023-05-10T06:31:26;22.45;;;16.25;;
13147;SDS011;6639;50.956;4.242;2023-05-10T06:33:53;25.95;;;16.63;;
13147;SDS011;6639;50.956;4.242;2023-05-10T06:36:22;25.50;;;16.48;;
13147;SDS011;6639;50.956;4.242;2023-05-10T06:38:51;26.33;;;18.27;;
13147;SDS011;6639;50.956;4.242;2023-05-10T06:41:18;21.83;;;17.13;;
13147;SDS011;6639;50.956;4.242;2023-05-10T06:43:45;25.17;;;17.08;;
13147;SDS011;6639;50.956;4.242;2023-05-10T06:46:12;24.17;;;17.55;;
13147;SDS011;6639;50.956;4.242;2023-05-10T06:48:39;25.77;;;17.77;;
13147;SDS011;6639;50.956;4.242;2023-05-10T06:51:06;28.80;;;18.95;;
13147;SDS011;6639;50.956;4.242;2023-05-10T06:53:34;28.58;;;18.60;;
13147;SDS011;6639;50.956;4.242;2023-05-10T06:56:01;28.33;;;19.20;;
13147;SDS011;6639;50.956;4.242;2023-05-10T06:58:29;26.02;;;18.35;;
13147;SDS011;6639;50.956;4.242;2023-05-10T07:01:01;29.65;;;18.55;;
13147;SDS011;6639;50.956;4.242;2023-05-10T07:03:29;27.70;;;18.90;;
13147;SDS011;6639;50.956;4.242;2023-05-10T07:05:59;28.50;;;18.55;;
13147;SDS011;6639;50.956;4.242;2023-05-10T07:08:28;28.45;;;18.33;;
13147;SDS011;6639;50.956;4.242;2023-05-10T07:11:00;22.88;;;17.83;;
13147;SDS011;6639;50.956;4.242;2023-05-10T07:13:28;25.45;;;17.52;;
13147;SDS011;6639;50.956;4.242;2023-05-10T07:15:56;31.15;;;19.05;;
13147;SDS011;6639;50.956;4.242;2023-05-10T07:18:23;19.85;;;15.77;;
13147;SDS011;6639;50.956;4.242;2023-05-10T07:20:50;25.50;;;16.15;;
13147;SDS011;6639;50.956;4.242;2023-05-10T07:23:17;28.25;;;16.52;;
13147;SDS011;6639;50.956;4.242;2023-05-10T07:25:44;23.38;;;16.20;;
13147;SDS011;6639;50.956;4.242;2023-05-10T07:28:13;25.58;;;15.73;;
13147;SDS011;6639;50.956;4.242;2023-05-10T07:30:41;28.65;;;14.93;;
13147;SDS011;6639;50.956;4.242;2023-05-10T07:33:08;20.75;;;14.63;;
13147;SDS011;6639;50.956;4.242;2023-05-10T07:35:36;19.02;;;14.52;;
13147;SDS011;6639;50.956;4.242;2023-05-10T07:38:03;19.85;;;14.32;;
13147;SDS011;6639;50.956;4.242;2023-05-10T07:40:30;21.75;;;13.60;;
13147;SDS011;6639;50.956;4.242;2023-05-10T07:42:58;19.48;;;13.75;;
13147;SDS011;6639;50.956;4.242;2023-05-10T07:45:28;18.75;;;13.60;;
13147;SDS011;6639;50.956;4.242;2023-05-10T07:47:55;17.25;;;13.60;;
13147;SDS011;6639;50.956;4.242;2023-05-10T07:50:21;22.73;;;14.30;;
13147;SDS011;6639;50.956;4.242;2023-05-10T07:52:48;16.27;;;11.85;;
13147;SDS011;6639;50.956;4.242;2023-05-10T07:55:15;19.35;;;13.00;;
13147;SDS011;6639;50.956;4.242;2023-05-10T07:57:46;17.08;;;13.18;;
13147;SDS011;6639;50.956;4.242;2023-05-10T08:00:13;21.90;;;13.57;;
13147;SDS011;6639;50.956;4.242;2023-05-10T08:02:45;16.30;;;12.43;;
13147;SDS011;6639;50.956;4.242;2023-05-10T08:05:12;24.92;;;13.15;;
13147;SDS011;6639;50.956;4.242;2023-05-10T08:07:39;13.20;;;11.45;;
13147;SDS011;6639;50.956;4.242;2023-05-10T08:10:08;16.85;;;10.32;;
13147;SDS011;6639;50.956;4.242;2023-05-10T08:12:36;15.30;;;11.00;;
13147;SDS011;6639;50.956;4.242;2023-05-10T08:15:04;15.73;;;10.55;;
13147;SDS011;6639;50.956;4.242;2023-05-10T08:17:31;17.60;;;10.65;;
13147;SDS011;6639;50.956;4.242;2023-05-10T08:20:00;13.25;;;9.30;;
13147;SDS011;6639;50.956;4.242;2023-05-10T08:22:26;17.40;;;9.77;;
13147;SDS011;6639;50.956;4.242;2023-05-10T08:24:53;12.55;;;9.02;;
13147;SDS011;6639;50.956;4.242;2023-05-10T08:27:20;15.45;;;9.32;;
13147;SDS011;6639;50.956;4.242;2023-05-10T08:29:47;12.48;;;8.50;;
13147;SDS011;6639;50.956;4.242;2023-05-10T08:32:14;11.38;;;8.30;;
13147;SDS011;6639;50.956;4.242;2023-05-10T08:34:41;13.38;;;8.77;;
13147;SDS011;6639;50.956;4.242;2023-05-10T08:37:09;13.30;;;9.20;;
13147;SDS011;6639;50.956;4.242;2023-05-10T08:39:38;13.25;;;9.05;;
13147;SDS011;6639;50.956;4.242;2023-05-10T08:42:05;14.80;;;9.65;;
13147;SDS011;6639;50.956;4.242;2023-05-10T08:44:34;15.15;;;9.70;;
13147;SDS011;6639;50.956;4.242;2023-05-10T08:47:02;16.52;;;9.43;;
13147;SDS011;6639;50.956;4.242;2023-05-10T08:49:32;12.48;;;10.23;;
13147;SDS011;6639;50.956;4.242;2023-05-10T08:52:00;12.15;;;9.82;;
13147;SDS011;6639;50.956;4.242;2023-05-10T08:54:30;13.15;;;9.00;;
13147;SDS011;6639;50.956;4.242;2023-05-10T08:56:58;15.77;;;9.75;;
13147;SDS011;6639;50.956;4.242;2023-05-10T08:59:25;10.45;;;8.68;;
13147;SDS011;6639;50.956;4.242;2023-05-10T09:01:52;14.38;;;10.10;;
13147;SDS011;6639;50.956;4.242;2023-05-10T09:04:21;15.00;;;9.65;;
13147;SDS011;6639;50.956;4.242;2023-05-10T09:06:49;15.85;;;9.05;;
13147;SDS011;6639;50.956;4.242;2023-05-10T09:09:16;10.15;;;8.73;;
13147;SDS011;6639;50.956;4.242;2023-05-10T09:11:45;12.10;;;9.60;;
13147;SDS011;6639;50.956;4.242;2023-05-10T09:14:12;14.10;;;8.43;;
13147;SDS011;6639;50.956;4.242;2023-05-10T09:16:41;12.52;;;8.57;;
13147;SDS011;6639;50.956;4.242;2023-05-10T09:19:08;14.82;;;9.75;;
13147;SDS011;6639;50.956;4.242;2023-05-10T09:21:35;11.45;;;8.65;;
13147;SDS011;6639;50.956;4.242;2023-05-10T09:24:03;10.38;;;9.23;;
13147;SDS011;6639;50.956;4.242;2023-05-10T09:26:31;14.02;;;8.50;;
13147;SDS011;6639;50.956;4.242;2023-05-10T09:29:00;13.30;;;8.70;;
13147;SDS011;6639;50.956;4.242;2023-05-10T09:34:18;11.30;;;8.68;;
13147;SDS011;6639;50.956;4.242;2023-05-10T09:36:52;13.00;;;9.18;;
13147;SDS011;6639;50.956;4.242;2023-05-10T09:39:21;10.60;;;8.10;;
13147;SDS011;6639;50.956;4.242;2023-05-10T09:41:57;10.00;;;8.70;;
13147;SDS011;6639;50.956;4.242;2023-05-10T09:44:27;11.45;;;8.85;;
13147;SDS011;6639;50.956;4.242;2023-05-10T09:46:54;10.25;;;9.15;;
13147;SDS011;6639;50.956;4.242;2023-05-10T09:49:21;12.00;;;8.85;;
13147;SDS011;6639;50.956;4.242;2023-05-10T09:51:57;10.52;;;8.95;;
13147;SDS011;6639;50.956;4.242;2023-05-10T09:54:27;11.27;;;8.18;;
13147;SDS011;6639;50.956;4.242;2023-05-10T09:56:54;10.48;;;8.88;;
13147;SDS011;6639;50.956;4.242;2023-05-10T09:59:21;10.00;;;8.48;;
13147;SDS011;6639;50.956;4.242;2023-05-10T10:01:52;9.80;;;7.88;;
13147;SDS011;6639;50.956;4.242;2023-05-10T10:04:20;11.52;;;8.23;;
13147;SDS011;6639;50.956;4.242;2023-05-10T10:06:47;7.95;;;7.03;;
13147;SDS011;6639;50.956;4.242;2023-05-10T10:09:25;9.27;;;6.55;;
13147;SDS011;6639;50.956;4.242;2023-05-10T10:11:53;8.98;;;7.53;;
13147;SDS011;6639;50.956;4.242;2023-05-10T10:14:21;8.75;;;7.13;;
13147;SDS011;6639;50.956;4.242;2023-05-10T10:16:48;8.13;;;5.78;;
13147;SDS011;6639;50.956;4.242;2023-05-10T10:19:17;11.18;;;7.50;;
13147;SDS011;6639;50.956;4.242;2023-05-10T10:21:45;9.35;;;7.22;;
13147;SDS011;6639;50.956;4.242;2023-05-10T10:24:12;7.55;;;6.63;;
13147;SDS011;6639;50.956;4.242;2023-05-10T10:26:39;7.43;;;6.72;;
13147;SDS011;6639;50.956;4.242;2023-05-10T10:29:10;8.13;;;6.43;;
13147;SDS011;6639;50.956;4.242;2023-05-10T10:31:49;8.60;;;7.32;;
13147;SDS011;6639;50.956;4.242;2023-05-10T10:34:25;8.35;;;6.75;;
13147;SDS011;6639;50.956;4.242;2023-05-10T10:36:54;9.57;;;6.75;;
13147;SDS011;6639;50.956;4.242;2023-05-10T10:39:22;9.25;;;7.22;;
13147;SDS011;6639;50.956;4.242;2023-05-10T10:41:50;12.93;;;7.60;;
13147;SDS011;6639;50.956;4.242;2023-05-10T10:44:25;8.80;;;7.68;;
13147;SDS011;6639;50.956;4.242;2023-05-10T10:47:03;7.82;;;7.00;;
13147;SDS011;6639;50.956;4.242;2023-05-10T10:49:38;7.75;;;6.75;;
13147;SDS011;6639;50.956;4.242;2023-05-10T10:52:13;8.32;;;6.97;;
13147;SDS011;6639;50.956;4.242;2023-05-10T10:54:41;10.55;;;7.50;;
13147;SDS011;6639;50.956;4.242;2023-05-10T10:57:13;10.82;;;7.10;;
13147;SDS011;6639;50.956;4.242;2023-05-10T10:59:41;8.65;;;7.25;;
13147;SDS011;6639;50.956;4.242;2023-05-10T11:02:09;8.25;;;7.45;;
13147;SDS011;6639;50.956;4.242;2023-05-10T11:04:43;8.60;;;7.75;;
13147;SDS011;6639;50.956;4.242;2023-05-10T11:07:17;10.05;;;7.53;;
13147;SDS011;6639;50.956;4.242;2023-05-10T11:09:45;7.95;;;7.15;;
13147;SDS011;6639;50.956;4.242;2023-05-10T11:12:13;9.73;;;7.68;;
13147;SDS011;6639;50.956;4.242;2023-05-10T11:14:40;9.63;;;8.60;;
13147;SDS011;6639;50.956;4.242;2023-05-10T11:17:22;10.43;;;8.77;;
13147;SDS011;6639;50.956;4.242;2023-05-10T11:20:07;12.25;;;8.98;;
13147;SDS011;6639;50.956;4.242;2023-05-10T11:22:48;10.05;;;8.10;;
13147;SDS011;6639;50.956;4.242;2023-05-10T11:25:16;11.18;;;7.63;;
13147;SDS011;6639;50.956;4.242;2023-05-10T11:27:43;9.95;;;8.95;;
13147;SDS011;6639;50.956;4.242;2023-05-10T11:30:10;8.95;;;8.02;;
13147;SDS011;6639;50.956;4.242;2023-05-10T11:32:39;10.20;;;7.85;;
13147;SDS011;6639;50.956;4.242;2023-05-10T11:35:10;9.65;;;8.48;;
13147;SDS011;6639;50.956;4.242;2023-05-10T11:37:38;12.38;;;8.68;;
13147;SDS011;6639;50.956;4.242;2023-05-10T11:40:09;11.35;;;7.32;;
13147;SDS011;6639;50.956;4.242;2023-05-10T11:42:36;11.77;;;7.45;;
13147;SDS011;6639;50.956;4.242;2023-05-10T11:45:04;9.30;;;7.80;;
13147;SDS011;6639;50.956;4.242;2023-05-10T11:47:32;10.88;;;8.70;;
13147;SDS011;6639;50.956;4.242;2023-05-10T11:50:00;8.32;;;7.38;;
13147;SDS011;6639;50.956;4.242;2023-05-10T11:52:29;8.48;;;7.47;;
13147;SDS011;6639;50.956;4.242;2023-05-10T11:55:01;8.60;;;7.45;;
13147;SDS011;6639;50.956;4.242;2023-05-10T11:57:28;11.75;;;8.20;;
13147;SDS011;6639;50.956;4.242;2023-05-10T11:59:56;11.55;;;8.00;;
13147;SDS011;6639;50.956;4.242;2023-05-10T12:02:23;8.50;;;7.25;;
13147;SDS011;6639;50.956;4.242;2023-05-10T12:04:50;8.23;;;7.03;;
13147;SDS011;6639;50.956;4.242;2023-05-10T12:07:17;9.40;;;7.68;;
13147;SDS011;6639;50.956;4.242;2023-05-10T12:09:48;8.85;;;7.85;;
13147;SDS011;6639;50.956;4.242;2023-05-10T12:12:34;8.20;;;7.40;;
13147;SDS011;6639;50.956;4.242;2023-05-10T12:15:07;9.52;;;7.63;;
13147;SDS011;6639;50.956;4.242;2023-05-10T12:17:38;9.25;;;7.45;;
13147;SDS011;6639;50.956;4.242;2023-05-10T12:20:15;8.70;;;7.40;;
13147;SDS011;6639;50.956;4.242;2023-05-10T12:22:44;7.95;;;7.25;;
13147;SDS011;6639;50.956;4.242;2023-05-10T12:25:13;8.88;;;7.68;;
13147;SDS011;6639;50.956;4.242;2023-05-10T12:27:41;9.43;;;8.52;;
13147;SDS011;6639;50.956;4.242;2023-05-10T12:30:17;8.70;;;7.80;;
13147;SDS011;6639;50.956;4.242;2023-05-10T12:32:47;9.18;;;7.45;;
13147;SDS011;6639;50.956;4.242;2023-05-10T12:35:14;9.05;;;8.20;;
13147;SDS011;6639;50.956;4.242;2023-05-10T12:37:42;10.88;;;8.20;;
13147;SDS011;6639;50.956;4.242;2023-05-10T12:40:10;9.65;;;8.65;;
13147;SDS011;6639;50.956;4.242;2023-05-10T12:42:39;8.90;;;7.80;;
13147;SDS011;6639;50.956;4.242;2023-05-10T12:45:07;9.68;;;8.73;;
13147;SDS011;6639;50.956;4.242;2023-05-10T12:47:36;9.82;;;8.32;;
13147;SDS011;6639;50.956;4.242;2023-05-10T12:50:08;11.55;;;8.93;;
13147;SDS011;6639;50.956;4.242;2023-05-10T12:52:36;8.65;;;7.80;;
13147;SDS011;6639;50.956;4.242;2023-05-10T12:55:03;10.57;;;8.15;;
13147;SDS011;6639;50.956;4.242;2023-05-10T12:57:31;9.35;;;8.45;;
13147;SDS011;6639;50.956;4.242;2023-05-10T12:59:58;10.82;;;8.45;;
13147;SDS011;6639;50.956;4.242;2023-05-10T13:02:25;10.13;;;8.13;;
13147;SDS011;6639;50.956;4.242;2023-05-10T13:04:52;8.82;;;7.95;;
13147;SDS011;6639;50.956;4.242;2023-05-10T13:07:23;9.27;;;8.38;;
13147;SDS011;6639;50.956;4.242;2023-05-10T13:09:50;10.27;;;9.15;;
13147;SDS011;6639;50.956;4.242;2023-05-10T13:12:16;9.07;;;8.00;;
13147;SDS011;6639;50.956;4.242;2023-05-10T13:14:45;9.52;;;8.63;;
13147;SDS011;6639;50.956;4.242;2023-05-10T13:17:12;10.95;;;9.23;;
13147;SDS011;6639;50.956;4.242;2023-05-10T13:19:39;10.48;;;9.20;;
13147;SDS011;6639;50.956;4.242;2023-05-10T13:22:06;9.70;;;8.65;;
13147;SDS011;6639;50.956;4.242;2023-05-10T13:24:33;9.80;;;8.70;;
13147;SDS011;6639;50.956;4.242;2023-05-10T13:27:01;13.05;;;9.38;;
13147;SDS011;6639;50.956;4.242;2023-05-10T13:29:28;10.90;;;8.48;;
13147;SDS011;6639;50.956;4.242;2023-05-10T13:31:56;9.60;;;8.18;;
13147;SDS011;6639;50.956;4.242;2023-05-10T13:34:23;9.13;;;8.18;;
13147;SDS011;6639;50.956;4.242;2023-05-10T13:36:50;10.70;;;9.35;;
13147;SDS011;6639;50.956;4.242;2023-05-10T13:39:18;10.85;;;8.90;;
13147;SDS011;6639;50.956;4.242;2023-05-10T13:41:45;11.23;;;8.45;;
13147;SDS011;6639;50.956;4.242;2023-05-10T13:44:12;10.10;;;8.45;;
13147;SDS011;6639;50.956;4.242;2023-05-10T13:46:39;10.40;;;8.85;;
13147;SDS011;6639;50.956;4.242;2023-05-10T13:49:08;10.05;;;8.93;;
13147;SDS011;6639;50.956;4.242;2023-05-10T13:51:35;10.73;;;8.80;;
13147;SDS011;6639;50.956;4.242;2023-05-10T13:54:02;11.60;;;10.15;;
13147;SDS011;6639;50.956;4.242;2023-05-10T13:56:30;11.25;;;9.25;;
13147;SDS011;6639;50.956;4.242;2023-05-10T13:58:57;10.60;;;9.50;;
13147;SDS011;6639;50.956;4.242;2023-05-10T14:01:24;11.35;;;10.13;;
13147;SDS011;6639;50.956;4.242;2023-05-10T14:03:51;13.75;;;10.82;;
13147;SDS011;6639;50.956;4.242;2023-05-10T14:06:20;11.32;;;10.13;;
13147;SDS011;6639;50.956;4.242;2023-05-10T14:08:47;12.95;;;9.43;;
13147;SDS011;6639;50.956;4.242;2023-05-10T14:11:14;12.25;;;11.02;;
13147;SDS011;6639;50.956;4.242;2023-05-10T14:13:41;11.77;;;10.63;;
13147;SDS011;6639;50.956;4.242;2023-05-10T14:16:08;10.90;;;9.75;;
13147;SDS011;6639;50.956;4.242;2023-05-10T14:18:35;12.95;;;11.50;;
13147;SDS011;6639;50.956;4.242;2023-05-10T14:21:02;12.48;;;10.77;;
13147;SDS011;6639;50.956;4.242;2023-05-10T14:23:31;13.63;;;10.60;;
13147;SDS011;6639;50.956;4.242;2023-05-10T14:25:58;11.60;;;10.40;;
13147;SDS011;6639;50.956;4.242;2023-05-10T14:28:25;11.18;;;9.77;;
13147;SDS011;6639;50.956;4.242;2023-05-10T14:30:51;11.40;;;9.77;;
13147;SDS011;6639;50.956;4.242;2023-05-10T14:33:18;11.40;;;10.23;;
13147;SDS011;6639;50.956;4.242;2023-05-10T14:35:45;13.27;;;11.35;;
13147;SDS011;6639;50.956;4.242;2023-05-10T14:38:13;11.70;;;10.27;;
13147;SDS011;6639;50.956;4.242;2023-05-10T14:40:41;13.07;;;10.13;;
13147;SDS011;6639;50.956;4.242;2023-05-10T14:43:08;12.40;;;10.82;;
13147;SDS011;6639;50.956;4.242;2023-05-10T14:45:35;13.10;;;10.88;;
13147;SDS011;6639;50.956;4.242;2023-05-10T14:48:02;13.20;;;11.38;;
13147;SDS011;6639;50.956;4.242;2023-05-10T14:50:30;11.70;;;10.57;;
13147;SDS011;6639;50.956;4.242;2023-05-10T14:52:58;11.10;;;10.00;;
13147;SDS011;6639;50.956;4.242;2023-05-10T14:55:25;12.45;;;9.15;;
13147;SDS011;6639;50.956;4.242;2023-05-10T14:57:53;12.23;;;8.93;;